H27 weather

Gainesville Memorial Airport
Gainesville, Missouri, United States

Public forecast

Using degrees Fahrenheit for public forecast. Weather courtesy of forecast.io.

Closest aviation weather report (METAR) to Gainesville Memorial Airport

Closest report is Ozark Regional Airport, 15.0 nm (27.8 km) SSW. Retrieved 2020/07/07 11:53 UTC (20 minutes ago):

KBPK 071153Z AUTO 00000KT 9SM CLR 22/21 A3001 RMK AO2 SLP152 70038 T02220211 10228 20211 53007

Closest aviation forecast (TAF) to Gainesville Memorial Airport

Closest forecast is Ozark Regional Airport, 15.0 nm (27.8 km) SSW. Retrieved 2020/07/07 12:22 UTC (0 seconds ago):

TAF KBPK 071120Z 0712/0812 VRB02KT P6SM SCT010 TEMPO 0712/0713 5SM BR FM071400 14006KT P6SM VCTS SCT050CB FM080300 VRB03KT P6SM FEW050 BKN100